sensor_id;sensor_type;location;lat;lon;timestamp;pressure;altitude;pressure_sealevel;temperature;humidity
62011;BME280;47967;51.756;10.174;2022-12-29T05:02:57;98505.22;;;11.44;71.83
62011;BME280;47967;51.756;10.174;2022-12-29T05:07:00;98504.72;;;11.47;71.57
62011;BME280;47967;51.756;10.174;2022-12-29T05:11:03;98498.63;;;11.40;71.98
62011;BME280;47967;51.756;10.174;2022-12-29T05:15:08;98491.72;;;11.44;72.16
62011;BME280;47967;51.756;10.174;2022-12-29T05:19:13;98496.53;;;11.42;72.51
62011;BME280;47967;51.756;10.174;2022-12-29T05:23:16;98482.44;;;11.40;72.58
62011;BME280;47967;51.756;10.174;2022-12-29T05:27:25;98480.31;;;11.42;72.78
62011;BME280;47967;51.756;10.174;2022-12-29T05:31:43;98483.38;;;11.33;73.21
62011;BME280;47967;51.756;10.174;2022-12-29T05:35:47;98476.22;;;11.27;73.29
62011;BME280;47967;51.756;10.174;2022-12-29T05:39:51;98485.13;;;11.40;72.89
62011;BME280;47967;51.756;10.174;2022-12-29T05:43:53;98493.59;;;11.43;73.05
62011;BME280;47967;51.756;10.174;2022-12-29T05:48:18;98495.59;;;11.48;73.15
62011;BME280;47967;51.756;10.174;2022-12-29T05:52:38;98490.88;;;11.55;72.78
62011;BME280;47967;51.756;10.174;2022-12-29T05:56:41;98513.63;;;11.71;72.36
62011;BME280;47967;51.756;10.174;2022-12-29T06:00:44;98505.50;;;11.71;72.34
62011;BME280;47967;51.756;10.174;2022-12-29T06:04:47;98524.53;;;11.64;72.95
62011;BME280;47967;51.756;10.174;2022-12-29T06:08:52;98496.88;;;11.57;72.87
62011;BME280;47967;51.756;10.174;2022-12-29T06:12:55;98485.13;;;11.51;73.14
62011;BME280;47967;51.756;10.174;2022-12-29T06:16:58;98466.25;;;11.28;73.71
62011;BME280;47967;51.756;10.174;2022-12-29T06:21:04;98459.44;;;11.25;73.80
62011;BME280;47967;51.756;10.174;2022-12-29T06:25:09;98463.19;;;11.36;73.51
62011;BME280;47967;51.756;10.174;2022-12-29T06:29:13;98456.63;;;11.44;73.14
62011;BME280;47967;51.756;10.174;2022-12-29T06:33:18;98489.59;;;11.46;72.91
62011;BME280;47967;51.756;10.174;2022-12-29T06:37:22;98515.16;;;11.67;72.58
62011;BME280;47967;51.756;10.174;2022-12-29T06:41:26;98498.72;;;11.68;72.06
62011;BME280;47967;51.756;10.174;2022-12-29T06:45:56;98507.88;;;11.67;72.08
62011;BME280;47967;51.756;10.174;2022-12-29T06:49:59;98509.16;;;11.77;71.80
62011;BME280;47967;51.756;10.174;2022-12-29T06:54:02;98503.16;;;11.75;71.70
62011;BME280;47967;51.756;10.174;2022-12-29T06:58:06;98509.88;;;11.60;72.21
62011;BME280;47967;51.756;10.174;2022-12-29T07:02:09;98510.91;;;11.71;72.01
62011;BME280;47967;51.756;10.174;2022-12-29T07:06:13;98515.38;;;11.65;72.06
62011;BME280;47967;51.756;10.174;2022-12-29T07:10:15;98524.19;;;11.73;71.68
62011;BME280;47967;51.756;10.174;2022-12-29T07:14:19;98519.03;;;11.71;71.70
62011;BME280;47967;51.756;10.174;2022-12-29T07:18:22;98512.06;;;11.75;71.63
62011;BME280;47967;51.756;10.174;2022-12-29T07:22:25;98508.75;;;11.85;71.15
62011;BME280;47967;51.756;10.174;2022-12-29T07:26:28;98513.00;;;11.81;71.32
62011;BME280;47967;51.756;10.174;2022-12-29T07:30:38;98519.00;;;11.83;71.46
62011;BME280;47967;51.756;10.174;2022-12-29T07:34:40;98520.53;;;11.79;71.59
62011;BME280;47967;51.756;10.174;2022-12-29T07:38:43;98511.09;;;11.93;71.30
62011;BME280;47967;51.756;10.174;2022-12-29T07:42:46;98518.75;;;11.84;71.93
62011;BME280;47967;51.756;10.174;2022-12-29T07:46:51;98510.41;;;11.86;71.87
62011;BME280;47967;51.756;10.174;2022-12-29T07:50:58;98516.88;;;11.85;72.08
62011;BME280;47967;51.756;10.174;2022-12-29T07:55:00;98521.13;;;11.81;72.15
62011;BME280;47967;51.756;10.174;2022-12-29T07:59:03;98534.38;;;11.82;72.60
62011;BME280;47967;51.756;10.174;2022-12-29T08:03:07;98533.34;;;11.72;73.71
62011;BME280;47967;51.756;10.174;2022-12-29T08:07:09;98542.13;;;11.79;73.10
62011;BME280;47967;51.756;10.174;2022-12-29T08:11:12;98534.16;;;11.84;73.15
62011;BME280;47967;51.756;10.174;2022-12-29T08:15:15;98531.47;;;11.84;73.02
62011;BME280;47967;51.756;10.174;2022-12-29T08:19:19;98536.19;;;11.77;73.54
62011;BME280;47967;51.756;10.174;2022-12-29T08:23:21;98528.28;;;11.75;73.49
62011;BME280;47967;51.756;10.174;2022-12-29T08:27:25;98535.22;;;11.71;73.64
62011;BME280;47967;51.756;10.174;2022-12-29T08:31:28;98544.63;;;11.80;73.25
62011;BME280;47967;51.756;10.174;2022-12-29T08:35:32;98550.69;;;11.88;73.27
62011;BME280;47967;51.756;10.174;2022-12-29T08:39:35;98546.25;;;11.81;73.12
62011;BME280;47967;51.756;10.174;2022-12-29T08:43:38;98544.50;;;11.75;73.58
62011;BME280;47967;51.756;10.174;2022-12-29T08:47:40;98550.38;;;11.84;73.87
62011;BME280;47967;51.756;10.174;2022-12-29T08:51:44;98561.75;;;11.74;74.26
62011;BME280;47967;51.756;10.174;2022-12-29T08:55:54;98556.25;;;11.81;73.27
62011;BME280;47967;51.756;10.174;2022-12-29T09:00:09;98562.25;;;11.59;73.88
62011;BME280;47967;51.756;10.174;2022-12-29T09:04:12;98574.84;;;11.42;73.81
62011;BME280;47967;51.756;10.174;2022-12-29T09:08:19;98579.66;;;11.28;74.61
62011;BME280;47967;51.756;10.174;2022-12-29T09:12:26;98579.66;;;11.16;74.29
62011;BME280;47967;51.756;10.174;2022-12-29T09:16:36;98585.75;;;11.11;73.42
62011;BME280;47967;51.756;10.174;2022-12-29T09:20:39;98589.75;;;11.20;73.63
62011;BME280;47967;51.756;10.174;2022-12-29T09:24:43;98586.22;;;11.20;73.68
62011;BME280;47967;51.756;10.174;2022-12-29T09:28:46;98576.50;;;11.31;73.96
62011;BME280;47967;51.756;10.174;2022-12-29T09:32:49;98575.75;;;11.47;73.45
62011;BME280;47967;51.756;10.174;2022-12-29T09:36:55;98583.19;;;11.40;73.01
62011;BME280;47967;51.756;10.174;2022-12-29T09:41:06;98572.25;;;11.35;72.57
62011;BME280;47967;51.756;10.174;2022-12-29T09:45:16;98589.84;;;11.37;72.64
62011;BME280;47967;51.756;10.174;2022-12-29T09:49:24;98581.41;;;11.22;71.79
62011;BME280;47967;51.756;10.174;2022-12-29T09:53:33;98569.44;;;11.30;71.32
62011;BME280;47967;51.756;10.174;2022-12-29T09:57:43;98569.56;;;11.35;71.61
62011;BME280;47967;51.756;10.174;2022-12-29T10:01:51;98578.47;;;11.47;70.22
62011;BME280;47967;51.756;10.174;2022-12-29T10:06:03;98571.91;;;11.43;70.49
62011;BME280;47967;51.756;10.174;2022-12-29T10:10:23;98576.03;;;11.34;70.72
62011;BME280;47967;51.756;10.174;2022-12-29T10:14:45;98576.13;;;11.15;71.07
62011;BME280;47967;51.756;10.174;2022-12-29T10:19:13;98585.38;;;10.96;71.75
62011;BME280;47967;51.756;10.174;2022-12-29T10:23:33;98586.47;;;11.18;71.98
62011;BME280;47967;51.756;10.174;2022-12-29T10:27:38;98587.88;;;11.33;70.92
62011;BME280;47967;51.756;10.174;2022-12-29T10:31:44;98594.22;;;11.50;70.34
62011;BME280;47967;51.756;10.174;2022-12-29T10:35:47;98591.00;;;11.89;69.11
62011;BME280;47967;51.756;10.174;2022-12-29T10:39:52;98573.31;;;12.22;68.48
62011;BME280;47967;51.756;10.174;2022-12-29T10:43:56;98577.81;;;12.45;67.56
62011;BME280;47967;51.756;10.174;2022-12-29T10:48:04;98585.09;;;12.45;68.88
62011;BME280;47967;51.756;10.174;2022-12-29T10:52:10;98590.50;;;12.16;70.17
62011;BME280;47967;51.756;10.174;2022-12-29T10:56:20;98584.97;;;12.23;71.83
62011;BME280;47967;51.756;10.174;2022-12-29T11:00:24;98584.63;;;12.48;71.37
62011;BME280;47967;51.756;10.174;2022-12-29T11:04:35;98576.47;;;12.60;71.64
62011;BME280;47967;51.756;10.174;2022-12-29T11:08:47;98570.84;;;12.49;71.93
62011;BME280;47967;51.756;10.174;2022-12-29T11:13:00;98564.22;;;12.40;72.42
62011;BME280;47967;51.756;10.174;2022-12-29T11:17:03;98579.91;;;12.14;72.84
62011;BME280;47967;51.756;10.174;2022-12-29T11:21:23;98568.28;;;12.14;72.64
62011;BME280;47967;51.756;10.174;2022-12-29T11:25:27;98565.69;;;12.19;72.12
62011;BME280;47967;51.756;10.174;2022-12-29T11:29:37;98559.28;;;12.37;71.11
62011;BME280;47967;51.756;10.174;2022-12-29T11:33:39;98561.25;;;12.42;70.85
62011;BME280;47967;51.756;10.174;2022-12-29T11:37:43;98570.13;;;12.54;69.91
62011;BME280;47967;51.756;10.174;2022-12-29T11:41:51;98553.00;;;12.65;67.86
62011;BME280;47967;51.756;10.174;2022-12-29T11:45:54;98563.38;;;12.86;67.72
62011;BME280;47967;51.756;10.174;2022-12-29T11:50:00;98570.13;;;12.83;67.20
62011;BME280;47967;51.756;10.174;2022-12-29T11:54:05;98577.03;;;12.62;67.70
62011;BME280;47967;51.756;10.174;2022-12-29T11:58:15;98585.25;;;12.67;66.69
62011;BME280;47967;51.756;10.174;2022-12-29T12:02:35;98592.38;;;12.56;66.55
62011;BME280;47967;51.756;10.174;2022-12-29T12:06:46;98591.06;;;12.59;67.17
62011;BME280;47967;51.756;10.174;2022-12-29T12:10:55;98597.44;;;12.53;67.08
62011;BME280;47967;51.756;10.174;2022-12-29T12:15:01;98602.63;;;12.42;67.30
62011;BME280;47967;51.756;10.174;2022-12-29T12:19:32;98584.75;;;12.41;67.07
62011;BME280;47967;51.756;10.174;2022-12-29T12:23:52;98596.03;;;12.21;66.60
62011;BME280;47967;51.756;10.174;2022-12-29T12:28:01;98591.06;;;12.18;66.26
62011;BME280;47967;51.756;10.174;2022-12-29T12:32:12;98593.31;;;12.21;65.86
62011;BME280;47967;51.756;10.174;2022-12-29T12:36:26;98601.41;;;12.33;66.39
62011;BME280;47967;51.756;10.174;2022-12-29T12:40:59;98607.44;;;12.23;65.39
62011;BME280;47967;51.756;10.174;2022-12-29T12:45:24;98613.56;;;12.07;65.36
62011;BME280;47967;51.756;10.174;2022-12-29T12:49:53;98617.78;;;12.14;64.91
62011;BME280;47967;51.756;10.174;2022-12-29T12:54:14;98626.28;;;12.06;64.05
62011;BME280;47967;51.756;10.174;2022-12-29T12:58:27;98603.81;;;11.94;63.64
62011;BME280;47967;51.756;10.174;2022-12-29T13:02:42;98619.13;;;12.00;63.16
62011;BME280;47967;51.756;10.174;2022-12-29T13:06:52;98627.91;;;11.95;63.49
62011;BME280;47967;51.756;10.174;2022-12-29T13:11:07;98637.41;;;11.86;62.16
62011;BME280;47967;51.756;10.174;2022-12-29T13:15:20;98635.56;;;11.98;62.48
62011;BME280;47967;51.756;10.174;2022-12-29T13:19:29;98632.72;;;11.93;62.25
62011;BME280;47967;51.756;10.174;2022-12-29T13:23:37;98655.75;;;11.96;62.63
62011;BME280;47967;51.756;10.174;2022-12-29T13:27:48;98634.72;;;11.86;62.57
62011;BME280;47967;51.756;10.174;2022-12-29T13:32:05;98657.03;;;11.81;61.87
62011;BME280;47967;51.756;10.174;2022-12-29T13:36:22;98648.94;;;11.93;62.10
62011;BME280;47967;51.756;10.174;2022-12-29T13:40:30;98664.09;;;11.82;61.71
62011;BME280;47967;51.756;10.174;2022-12-29T13:44:37;98668.78;;;11.87;61.82
62011;BME280;47967;51.756;10.174;2022-12-29T13:48:46;98669.75;;;11.81;61.13
62011;BME280;47967;51.756;10.174;2022-12-29T13:52:59;98681.97;;;11.83;61.62
62011;BME280;47967;51.756;10.174;2022-12-29T13:57:08;98693.94;;;11.76;61.26
62011;BME280;47967;51.756;10.174;2022-12-29T14:01:16;98699.94;;;11.78;61.18
62011;BME280;47967;51.756;10.174;2022-12-29T14:05:29;98702.88;;;11.76;61.18
62011;BME280;47967;51.756;10.174;2022-12-29T14:09:44;98713.44;;;11.66;61.80
62011;BME280;47967;51.756;10.174;2022-12-29T14:13:48;98714.38;;;11.72;62.16
62011;BME280;47967;51.756;10.174;2022-12-29T14:18:03;98718.38;;;11.69;61.93
62011;BME280;47967;51.756;10.174;2022-12-29T14:22:07;98717.56;;;11.68;62.06
62011;BME280;47967;51.756;10.174;2022-12-29T14:26:18;98715.56;;;11.76;62.44
62011;BME280;47967;51.756;10.174;2022-12-29T14:31:00;98723.56;;;11.71;62.25
62011;BME280;47967;51.756;10.174;2022-12-29T14:35:37;98722.13;;;11.56;62.60
62011;BME280;47967;51.756;10.174;2022-12-29T14:39:41;98714.72;;;11.51;63.23
62011;BME280;47967;51.756;10.174;2022-12-29T14:43:58;98723.53;;;11.59;63.21
62011;BME280;47967;51.756;10.174;2022-12-29T14:48:21;98725.97;;;11.48;63.68
62011;BME280;47967;51.756;10.174;2022-12-29T14:52:25;98725.59;;;11.45;64.18
62011;BME280;47967;51.756;10.174;2022-12-29T14:56:39;98731.13;;;11.38;64.88
62011;BME280;47967;51.756;10.174;2022-12-29T15:00:44;98722.63;;;11.23;65.43
62011;BME280;47967;51.756;10.174;2022-12-29T15:04:48;98749.97;;;11.26;65.78
62011;BME280;47967;51.756;10.174;2022-12-29T15:08:55;98761.63;;;11.27;65.79
62011;BME280;47967;51.756;10.174;2022-12-29T15:13:05;98766.66;;;11.23;65.79
62011;BME280;47967;51.756;10.174;2022-12-29T15:17:26;98768.88;;;11.26;65.81
62011;BME280;47967;51.756;10.174;2022-12-29T15:21:31;98780.53;;;11.27;65.72
62011;BME280;47967;51.756;10.174;2022-12-29T15:25:35;98787.41;;;11.23;66.22
62011;BME280;47967;51.756;10.174;2022-12-29T15:29:39;98784.66;;;11.11;66.69
62011;BME280;47967;51.756;10.174;2022-12-29T15:33:45;98789.47;;;11.09;66.63
62011;BME280;47967;51.756;10.174;2022-12-29T15:37:49;98802.31;;;11.13;66.10
62011;BME280;47967;51.756;10.174;2022-12-29T15:41:55;98822.81;;;11.14;66.96
62011;BME280;47967;51.756;10.174;2022-12-29T15:46:01;98829.38;;;10.88;68.09
62011;BME280;47967;51.756;10.174;2022-12-29T15:50:14;98823.53;;;10.72;68.66
62011;BME280;47967;51.756;10.174;2022-12-29T15:54:20;98839.94;;;10.71;68.67
62011;BME280;47967;51.756;10.174;2022-12-29T15:58:26;98837.31;;;10.64;69.77
62011;BME280;47967;51.756;10.174;2022-12-29T16:02:29;98843.16;;;10.61;69.89
62011;BME280;47967;51.756;10.174;2022-12-29T16:06:35;98844.44;;;10.59;69.83
62011;BME280;47967;51.756;10.174;2022-12-29T16:10:40;98850.50;;;10.54;69.99
62011;BME280;47967;51.756;10.174;2022-12-29T16:14:47;98847.84;;;10.47;69.69
62011;BME280;47967;51.756;10.174;2022-12-29T16:18:53;98846.75;;;10.55;69.22
62011;BME280;47967;51.756;10.174;2022-12-29T16:23:00;98848.84;;;10.53;68.79
62011;BME280;47967;51.756;10.174;2022-12-29T16:27:20;98838.28;;;10.51;68.57
62011;BME280;47967;51.756;10.174;2022-12-29T16:31:32;98832.56;;;10.41;68.93
62011;BME280;47967;51.756;10.174;2022-12-29T16:35:44;98835.25;;;10.41;68.61
62011;BME280;47967;51.756;10.174;2022-12-29T16:39:48;98837.47;;;10.25;68.94
62011;BME280;47967;51.756;10.174;2022-12-29T16:44:10;98845.47;;;10.32;69.05
62011;BME280;47967;51.756;10.174;2022-12-29T16:48:18;98850.31;;;10.23;69.62
62011;BME280;47967;51.756;10.174;2022-12-29T16:52:25;98842.56;;;10.08;70.54
62011;BME280;47967;51.756;10.174;2022-12-29T16:56:33;98843.34;;;10.16;70.95
62011;BME280;47967;51.756;10.174;2022-12-29T17:00:37;98844.44;;;10.08;71.04
62011;BME280;47967;51.756;10.174;2022-12-29T17:04:40;98840.06;;;10.07;71.58
62011;BME280;47967;51.756;10.174;2022-12-29T17:08:44;98832.84;;;10.07;71.42
62011;BME280;47967;51.756;10.174;2022-12-29T17:12:49;98834.50;;;10.08;72.03
62011;BME280;47967;51.756;10.174;2022-12-29T17:16:51;98827.94;;;9.98;72.16
62011;BME280;47967;51.756;10.174;2022-12-29T17:20:55;98827.31;;;9.96;72.75
62011;BME280;47967;51.756;10.174;2022-12-29T17:25:00;98827.47;;;10.01;72.70
62011;BME280;47967;51.756;10.174;2022-12-29T17:29:04;98849.81;;;9.83;73.09
62011;BME280;47967;51.756;10.174;2022-12-29T17:33:12;98846.03;;;9.90;73.21
62011;BME280;47967;51.756;10.174;2022-12-29T17:37:33;98851.94;;;10.06;72.19
62011;BME280;47967;51.756;10.174;2022-12-29T17:41:36;98862.03;;;10.10;71.67
62011;BME280;47967;51.756;10.174;2022-12-29T17:45:43;98863.69;;;10.12;71.84
62011;BME280;47967;51.756;10.174;2022-12-29T17:49:46;98851.69;;;10.07;71.62
62011;BME280;47967;51.756;10.174;2022-12-29T17:53:49;98861.63;;;10.07;71.89
62011;BME280;47967;51.756;10.174;2022-12-29T17:57:53;98862.91;;;10.04;71.35
62011;BME280;47967;51.756;10.174;2022-12-29T18:01:57;98864.16;;;10.02;71.90
62011;BME280;47967;51.756;10.174;2022-12-29T18:06:00;98862.63;;;9.87;70.81
62011;BME280;47967;51.756;10.174;2022-12-29T18:10:05;98860.50;;;9.96;70.51
62011;BME280;47967;51.756;10.174;2022-12-29T18:14:10;98856.25;;;9.82;71.02
62011;BME280;47967;51.756;10.174;2022-12-29T18:18:16;98881.28;;;9.89;71.47
62011;BME280;47967;51.756;10.174;2022-12-29T18:22:21;98874.41;;;9.93;71.40
62011;BME280;47967;51.756;10.174;2022-12-29T18:26:26;98891.44;;;9.87;71.58
62011;BME280;47967;51.756;10.174;2022-12-29T18:30:29;98888.34;;;9.83;71.16
62011;BME280;47967;51.756;10.174;2022-12-29T18:34:33;98887.97;;;9.80;70.59
62011;BME280;47967;51.756;10.174;2022-12-29T18:38:36;98887.53;;;9.83;69.55
62011;BME280;47967;51.756;10.174;2022-12-29T18:42:39;98889.34;;;9.89;68.29
62011;BME280;47967;51.756;10.174;2022-12-29T18:46:41;98908.56;;;9.99;67.38
62011;BME280;47967;51.756;10.174;2022-12-29T18:50:48;98911.81;;;10.08;67.05
62011;BME280;47967;51.756;10.174;2022-12-29T18:54:52;98921.38;;;10.04;67.23
62011;BME280;47967;51.756;10.174;2022-12-29T18:58:55;98918.91;;;10.02;67.19
62011;BME280;47967;51.756;10.174;2022-12-29T19:02:58;98916.03;;;9.97;67.54
62011;BME280;47967;51.756;10.174;2022-12-29T19:07:02;98926.53;;;10.05;68.06
62011;BME280;47967;51.756;10.174;2022-12-29T19:11:05;98915.25;;;9.90;68.01
62011;BME280;47967;51.756;10.174;2022-12-29T19:15:13;98918.94;;;9.96;68.24
62011;BME280;47967;51.756;10.174;2022-12-29T19:19:19;98921.00;;;10.00;67.76
62011;BME280;47967;51.756;10.174;2022-12-29T19:23:24;98913.59;;;9.89;67.87
62011;BME280;47967;51.756;10.174;2022-12-29T19:27:27;98917.28;;;9.94;67.49
62011;BME280;47967;51.756;10.174;2022-12-29T19:31:32;98919.00;;;9.89;67.20
62011;BME280;47967;51.756;10.174;2022-12-29T19:35:34;98913.25;;;9.78;67.24
62011;BME280;47967;51.756;10.174;2022-12-29T19:39:38;98910.03;;;9.56;67.75
62011;BME280;47967;51.756;10.174;2022-12-29T19:43:41;98911.75;;;9.44;68.15
62011;BME280;47967;51.756;10.174;2022-12-29T19:47:44;98918.22;;;9.82;67.31
62011;BME280;47967;51.756;10.174;2022-12-29T19:51:47;98922.16;;;9.79;67.52
62011;BME280;47967;51.756;10.174;2022-12-29T19:55:50;98913.22;;;9.85;66.95
62011;BME280;47967;51.756;10.174;2022-12-29T19:59:53;98923.63;;;9.75;67.39
62011;BME280;47967;51.756;10.174;2022-12-29T20:03:56;98939.66;;;9.56;68.12
62011;BME280;47967;51.756;10.174;2022-12-29T20:07:59;98931.47;;;9.38;68.51
62011;BME280;47967;51.756;10.174;2022-12-29T20:12:03;98922.59;;;9.31;69.17
62011;BME280;47967;51.756;10.174;2022-12-29T20:16:08;98932.94;;;9.20;69.92
62011;BME280;47967;51.756;10.174;2022-12-29T20:20:11;98939.84;;;9.09;69.81
62011;BME280;47967;51.756;10.174;2022-12-29T20:24:14;98946.47;;;8.93;70.07
62011;BME280;47967;51.756;10.174;2022-12-29T20:28:18;98952.69;;;8.87;70.30
62011;BME280;47967;51.756;10.174;2022-12-29T20:32:22;98966.13;;;9.01;70.11
62011;BME280;47967;51.756;10.174;2022-12-29T20:36:27;98960.94;;;9.12;69.88
62011;BME280;47967;51.756;10.174;2022-12-29T20:40:30;98960.13;;;9.05;70.02
62011;BME280;47967;51.756;10.174;2022-12-29T20:44:35;98960.53;;;9.09;69.80
62011;BME280;47967;51.756;10.174;2022-12-29T20:48:38;98955.97;;;9.03;69.58
62011;BME280;47967;51.756;10.174;2022-12-29T20:52:40;98960.72;;;9.14;69.77
62011;BME280;47967;51.756;10.174;2022-12-29T20:56:45;98965.06;;;9.22;69.44
62011;BME280;47967;51.756;10.174;2022-12-29T21:00:49;98964.44;;;9.26;69.05
62011;BME280;47967;51.756;10.174;2022-12-29T21:04:51;98967.31;;;9.25;69.39
62011;BME280;47967;51.756;10.174;2022-12-29T21:09:14;98967.69;;;9.42;68.69
62011;BME280;47967;51.756;10.174;2022-12-29T21:13:17;98962.47;;;9.47;68.17
62011;BME280;47967;51.756;10.174;2022-12-29T21:17:21;98980.50;;;9.47;67.90
62011;BME280;47967;51.756;10.174;2022-12-29T21:21:24;98990.22;;;9.54;67.83
62011;BME280;47967;51.756;10.174;2022-12-29T21:25:28;98992.50;;;9.51;67.38
62011;BME280;47967;51.756;10.174;2022-12-29T21:29:37;98996.00;;;9.58;66.54
62011;BME280;47967;51.756;10.174;2022-12-29T21:33:41;99000.47;;;9.77;65.38
62011;BME280;47967;51.756;10.174;2022-12-29T21:37:44;99010.63;;;9.82;65.10
62011;BME280;47967;51.756;10.174;2022-12-29T21:41:46;99011.47;;;9.76;65.18
62011;BME280;47967;51.756;10.174;2022-12-29T21:45:49;99031.41;;;9.61;65.25
62011;BME280;47967;51.756;10.174;2022-12-29T21:49:53;99024.53;;;9.79;64.89
62011;BME280;47967;51.756;10.174;2022-12-29T21:53:57;99027.59;;;9.89;64.83
62011;BME280;47967;51.756;10.174;2022-12-29T21:58:20;99037.31;;;9.90;64.27
